Sapopema, Brazil
Current Conditions -  °F | °C
As of 12:00 PM on Saturday 25 Oct 2014 (Local Time) from SBLO Reporting Station
Broken Clouds Broken Clouds  
Wind Chill: 73°   Ceiling: 1000
Heat Index: 73°   Visibility: 6mi
Dew Point: 68°   Wind: 6mph
Humidity: 83%   Direction: 70°ENE
Pressure: 30.03"   Gusts: NA
Location:  23.91°S, 50.58°W
Report Text: SBLO 251400Z 07005KT 9999 BKN010 BKN100 23/20 Q1017
Loading
Personal Weather Stations






























Interactive Weather Map
Tropical Storm Tracking
New forecast layout! Learn more

10-Day Weather Forecast

Advertisements
Track Severe Weather on mobile